createdAt,value
2023-10-13T00:02:53.977Z,12.25
2023-10-13T00:06:01.763Z,12.93
2023-10-13T00:09:05.464Z,13.70
2023-10-13T00:12:15.106Z,10.93
2023-10-13T00:15:19.028Z,9.73
2023-10-13T00:18:22.086Z,13.18
2023-10-13T00:21:34.367Z,7.35
2023-10-13T00:24:44.567Z,11.00
2023-10-13T00:27:53.115Z,8.90
2023-10-13T00:31:02.493Z,7.77
2023-10-13T00:34:31.143Z,11.48
2023-10-13T00:37:42.579Z,10.30
2023-10-13T00:40:52.747Z,7.35
2023-10-13T00:44:10.130Z,10.48
2023-10-13T00:47:23.869Z,9.70
2023-10-13T00:50:26.611Z,7.78
2023-10-13T00:53:30.119Z,7.95
2023-10-13T00:56:32.544Z,9.75
2023-10-13T00:59:37.366Z,10.40
2023-10-13T01:02:40.115Z,8.40
2023-10-13T01:05:43.941Z,8.38
2023-10-13T01:08:53.015Z,8.68
2023-10-13T01:11:56.390Z,9.60
2023-10-13T01:15:00.772Z,10.73
2023-10-13T01:18:14.578Z,13.77
2023-10-13T01:21:21.251Z,8.68
2023-10-13T01:24:27.166Z,7.90
2023-10-13T01:27:29.692Z,9.27
2023-10-13T01:30:32.140Z,14.80
2023-10-13T01:33:36.072Z,9.37
2023-10-13T01:36:41.512Z,10.27
2023-10-13T01:39:48.406Z,11.07
2023-10-13T01:42:56.601Z,9.32
2023-10-13T01:45:59.280Z,9.32
2023-10-13T01:49:03.920Z,9.03
2023-10-13T01:52:06.566Z,10.15
2023-10-13T01:55:12.734Z,9.43
2023-10-13T01:58:16.493Z,8.50
2023-10-13T02:01:28.295Z,12.52
2023-10-13T02:04:35.521Z,11.20
2023-10-13T02:07:39.980Z,11.82
2023-10-13T02:10:44.526Z,8.75
2023-10-13T02:13:51.391Z,12.15
2023-10-13T02:17:13.020Z,10.35
2023-10-13T02:20:16.702Z,10.70
2023-10-13T02:23:19.102Z,9.20
2023-10-13T02:26:31.866Z,11.98
2023-10-13T02:29:40.669Z,11.55
2023-10-13T02:32:45.261Z,10.38
2023-10-13T02:35:57.513Z,12.70
2023-10-13T02:39:00.594Z,11.68
2023-10-13T02:42:08.123Z,16.15
2023-10-13T02:45:13.389Z,10.30
2023-10-13T02:48:18.707Z,10.32
2023-10-13T02:51:26.865Z,10.90
2023-10-13T02:54:32.502Z,9.93
2023-10-13T02:57:35.879Z,11.25
2023-10-13T03:00:41.771Z,12.60
2023-10-13T03:03:51.814Z,17.35
2023-10-13T03:06:54.269Z,14.60
2023-10-13T03:10:01.245Z,14.18
2023-10-13T03:13:04.048Z,14.75
2023-10-13T03:16:20.821Z,13.98
2023-10-13T03:19:24.118Z,13.00
2023-10-13T03:22:33.977Z,13.23
2023-10-13T03:25:43.901Z,15.65
2023-10-13T03:28:52.665Z,16.80
2023-10-13T03:32:08.039Z,16.23
2023-10-13T03:35:25.036Z,16.17
2023-10-13T03:38:28.568Z,11.50
2023-10-13T03:41:31.660Z,11.73
2023-10-13T03:44:39.248Z,12.00
2023-10-13T03:47:43.823Z,10.70
2023-10-13T03:51:05.157Z,13.00
2023-10-13T03:54:10.788Z,15.27
2023-10-13T03:57:13.741Z,12.25
2023-10-13T04:00:22.612Z,13.85
2023-10-13T04:03:34.270Z,10.70
2023-10-13T04:06:48.743Z,10.88
2023-10-13T04:09:51.369Z,12.20
2023-10-13T04:13:31.701Z,13.07
2023-10-13T04:16:34.216Z,14.75
2023-10-13T04:19:56.642Z,15.20
2023-10-13T04:22:59.059Z,12.38
2023-10-13T04:26:10.818Z,13.67
2023-10-13T04:29:28.887Z,16.10
2023-10-13T04:32:39.399Z,9.85
2023-10-13T04:35:49.092Z,17.08
2023-10-13T04:38:57.900Z,12.65
2023-10-13T04:42:12.170Z,10.27
2023-10-13T04:45:37.483Z,11.27
2023-10-13T04:48:42.620Z,9.68
2023-10-13T04:51:59.082Z,10.38
2023-10-13T04:55:11.595Z,10.63
2023-10-13T04:58:36.731Z,11.50
2023-10-13T05:02:11.095Z,15.35
2023-10-13T05:05:15.393Z,10.98
2023-10-13T05:08:35.969Z,14.80
2023-10-13T05:11:56.634Z,12.40
2023-10-13T05:15:17.405Z,10.77
2023-10-13T05:18:38.068Z,11.75
2023-10-13T05:21:58.825Z,11.95
2023-10-13T05:25:19.758Z,14.40
2023-10-13T05:28:40.475Z,9.32
2023-10-13T05:32:01.188Z,10.17
2023-10-13T05:35:22.957Z,11.52
2023-10-13T05:38:43.810Z,12.98
2023-10-13T05:42:04.730Z,10.68
2023-10-13T05:45:19.517Z,9.77
2023-10-13T05:48:35.614Z,12.30
2023-10-13T05:51:41.259Z,10.25
2023-10-13T05:55:01.854Z,11.35
2023-10-13T05:58:24.710Z,9.38
2023-10-13T06:01:45.423Z,11.25
2023-10-13T06:05:06.552Z,11.77
2023-10-13T06:08:27.485Z,11.20
2023-10-13T06:11:48.256Z,11.93
2023-10-13T06:15:09.258Z,14.60
2023-10-13T06:18:30.363Z,12.30
2023-10-13T06:21:51.196Z,10.47
2023-10-13T06:25:11.966Z,10.52
2023-10-13T06:28:32.694Z,12.07
2023-10-13T06:31:35.926Z,11.65
2023-10-13T06:34:48.735Z,10.25
2023-10-13T06:37:52.637Z,16.10
2023-10-13T06:40:57.725Z,9.80
2023-10-13T06:44:06.520Z,9.40
2023-10-13T06:47:09.298Z,11.60
2023-10-13T06:50:20.748Z,12.38
2023-10-13T06:53:24.833Z,16.33
2023-10-13T06:56:29.200Z,13.13
2023-10-13T06:59:34.009Z,12.18
2023-10-13T07:02:36.496Z,10.05
2023-10-13T07:05:40.490Z,8.45
2023-10-13T07:08:43.972Z,9.00
2023-10-13T07:11:46.335Z,10.23
2023-10-13T07:14:53.439Z,8.10
2023-10-13T07:18:00.436Z,7.80
2023-10-13T07:21:10.751Z,9.25
2023-10-13T07:24:15.085Z,9.27
2023-10-13T07:27:24.127Z,7.50
2023-10-13T07:30:32.068Z,9.27
2023-10-13T07:33:34.504Z,11.30
2023-10-13T07:36:40.775Z,10.70
2023-10-13T07:39:45.898Z,11.07
2023-10-13T07:42:48.453Z,10.80
2023-10-13T07:45:59.962Z,9.75
2023-10-13T07:49:16.504Z,8.63
2023-10-13T07:52:22.446Z,7.63
2023-10-13T07:55:26.293Z,6.87
2023-10-13T07:58:28.819Z,7.20
2023-10-13T08:01:31.687Z,8.00
2023-10-13T08:04:36.565Z,7.97
2023-10-13T08:07:41.193Z,6.35
2023-10-13T08:10:46.597Z,8.90
2023-10-13T08:14:03.394Z,6.40
2023-10-13T08:17:14.105Z,7.45
2023-10-13T08:20:18.375Z,6.85
2023-10-13T08:23:35.723Z,6.75
2023-10-13T08:26:38.154Z,5.80
2023-10-13T08:29:55.830Z,8.60
2023-10-13T08:33:00.204Z,7.80
2023-10-13T08:36:19.567Z,7.20
2023-10-13T08:39:45.152Z,10.38
2023-10-13T08:42:48.348Z,8.97
2023-10-13T08:45:52.391Z,9.02
2023-10-13T08:49:16.033Z,8.75
2023-10-13T08:52:47.117Z,10.65
2023-10-13T08:56:03.591Z,7.53
2023-10-13T08:59:06.681Z,7.27
2023-10-13T09:02:23.075Z,8.05
2023-10-13T09:05:45.462Z,7.82
2023-10-13T09:09:20.161Z,9.57
2023-10-13T09:12:46.264Z,9.40
2023-10-13T09:16:00.793Z,7.00
2023-10-13T09:19:06.296Z,6.70
2023-10-13T09:22:08.740Z,8.63
2023-10-13T09:25:15.017Z,7.60
2023-10-13T09:28:19.756Z,8.43
2023-10-13T09:31:27.720Z,8.43
2023-10-13T09:34:31.985Z,7.97
2023-10-13T09:37:38.382Z,10.85
2023-10-13T09:40:47.348Z,7.20
2023-10-13T09:43:53.002Z,9.32
2023-10-13T09:47:04.622Z,5.93
2023-10-13T09:50:15.425Z,7.65
2023-10-13T09:53:19.506Z,7.82
2023-10-13T09:56:29.599Z,7.10
2023-10-13T09:59:41.269Z,6.10
2023-10-13T10:02:45.594Z,8.97
2023-10-13T10:06:04.967Z,7.57
2023-10-13T10:09:12.900Z,6.95
2023-10-13T10:12:48.274Z,8.52
2023-10-13T10:15:55.586Z,10.05
2023-10-13T10:19:03.091Z,8.70
2023-10-13T10:22:17.792Z,8.82
2023-10-13T10:25:30.860Z,9.32
2023-10-13T10:28:37.954Z,6.68
2023-10-13T10:31:45.512Z,8.48
2023-10-13T10:34:48.681Z,7.10
2023-10-13T10:37:51.357Z,8.27
2023-10-13T10:40:58.846Z,7.75
2023-10-13T10:44:04.141Z,7.85
2023-10-13T10:47:32.628Z,9.98
2023-10-13T10:50:38.632Z,7.27
2023-10-13T10:53:47.475Z,8.02
2023-10-13T10:56:55.932Z,7.25
2023-10-13T11:00:15.724Z,10.07
2023-10-13T11:03:18.737Z,8.35
2023-10-13T11:06:21.612Z,7.33
2023-10-13T11:09:38.286Z,7.68
2023-10-13T11:12:41.345Z,9.32
2023-10-13T11:15:47.399Z,8.88
2023-10-13T11:18:49.804Z,11.65
2023-10-13T11:21:57.075Z,7.20
2023-10-13T11:25:01.587Z,7.43
2023-10-13T11:28:21.590Z,6.57
2023-10-13T11:31:25.760Z,7.10
2023-10-13T11:34:41.044Z,10.63
2023-10-13T11:41:05.660Z,8.15
2023-10-13T11:44:13.755Z,8.57
2023-10-13T11:47:48.723Z,6.57
2023-10-13T11:50:51.320Z,7.80
2023-10-13T11:53:53.679Z,11.17
2023-10-13T11:56:59.688Z,7.85
2023-10-13T12:00:22.475Z,11.20
2023-10-13T12:03:43.383Z,6.53
2023-10-13T12:06:45.802Z,9.35
2023-10-13T12:09:55.816Z,7.67
2023-10-13T12:12:59.801Z,6.88
2023-10-13T12:16:09.583Z,7.50
2023-10-13T12:19:12.829Z,7.13
2023-10-13T12:22:26.345Z,5.68
2023-10-13T12:25:34.475Z,4.77
2023-10-13T12:28:42.617Z,4.95
2023-10-13T12:31:52.358Z,4.93
2023-10-13T12:35:00.705Z,7.65
2023-10-13T12:38:06.726Z,5.50
2023-10-13T12:41:34.445Z,6.70
2023-10-13T12:44:57.036Z,4.63
2023-10-13T12:48:17.938Z,6.55
2023-10-13T12:51:21.405Z,5.10
2023-10-13T12:54:36.233Z,7.25
2023-10-13T12:57:44.528Z,7.20
2023-10-13T13:00:50.304Z,3.78
2023-10-13T13:03:57.427Z,7.88
2023-10-13T13:06:59.882Z,5.88
2023-10-13T13:10:02.302Z,5.75
2023-10-13T13:13:05.676Z,4.33
2023-10-13T13:16:09.105Z,4.50
2023-10-13T13:19:11.527Z,5.00
2023-10-13T13:22:14.069Z,5.60
2023-10-13T13:25:19.268Z,5.93
2023-10-13T13:28:24.890Z,8.17
2023-10-13T13:31:30.358Z,6.18
2023-10-13T13:34:32.903Z,4.85
2023-10-13T13:37:36.038Z,5.85
2023-10-13T13:40:39.418Z,5.35
2023-10-13T13:43:51.160Z,5.97
2023-10-13T13:46:54.586Z,2.95
2023-10-13T13:49:57.201Z,7.55
2023-10-13T13:53:01.443Z,5.88
2023-10-13T13:56:04.332Z,4.13
2023-10-13T13:59:10.503Z,4.87
2023-10-13T14:02:21.965Z,5.10
2023-10-13T14:05:24.585Z,5.28
2023-10-13T14:08:28.596Z,4.78
2023-10-13T14:11:41.342Z,3.78
2023-10-13T14:14:51.170Z,6.50
2023-10-13T14:17:53.602Z,4.10
2023-10-13T14:20:57.290Z,5.43
2023-10-13T14:24:01.998Z,3.42
2023-10-13T14:27:19.080Z,5.35
2023-10-13T14:30:22.836Z,3.50
2023-10-13T14:33:27.010Z,3.72
2023-10-13T14:36:30.212Z,7.80
2023-10-13T14:39:35.551Z,6.60
2023-10-13T14:42:37.943Z,6.45
2023-10-13T14:45:40.316Z,8.30
2023-10-13T14:48:45.732Z,9.73
2023-10-13T14:51:48.258Z,6.60
2023-10-13T14:54:56.444Z,8.82
2023-10-13T14:57:59.499Z,9.43
2023-10-13T15:01:02.212Z,15.13
2023-10-13T15:04:06.120Z,11.93
2023-10-13T15:07:08.802Z,8.80
2023-10-13T15:10:15.928Z,11.65
2023-10-13T15:13:19.804Z,12.20
2023-10-13T15:16:24.957Z,9.17
2023-10-13T15:19:27.450Z,8.45
2023-10-13T15:22:29.991Z,9.93
2023-10-13T15:25:42.852Z,6.82
2023-10-13T15:28:54.367Z,8.45
2023-10-13T15:32:02.534Z,10.90
2023-10-13T15:35:05.634Z,8.52
2023-10-13T15:38:08.274Z,7.15
2023-10-13T15:41:10.734Z,10.68
2023-10-13T15:44:14.389Z,7.35
2023-10-13T15:50:23.288Z,11.65
2023-10-13T15:53:26.751Z,8.00
2023-10-13T15:56:29.239Z,8.70
2023-10-13T15:59:31.692Z,9.95
2023-10-13T16:02:34.168Z,9.63
2023-10-13T16:05:38.371Z,9.70
2023-10-13T16:08:44.368Z,13.55
2023-10-13T16:11:47.338Z,9.38
2023-10-13T16:14:49.730Z,15.57
2023-10-13T16:17:54.813Z,12.03
2023-10-13T16:20:57.397Z,10.27
2023-10-13T16:23:59.971Z,9.13
2023-10-13T16:27:02.440Z,36.30
2023-10-13T16:30:05.235Z,21.23
2023-10-13T16:33:07.753Z,14.43
2023-10-13T16:36:11.402Z,15.85
2023-10-13T16:39:16.314Z,14.32
2023-10-13T16:42:19.143Z,14.15
2023-10-13T16:45:22.077Z,10.82
2023-10-13T16:48:25.422Z,10.17
2023-10-13T16:51:30.349Z,12.30
2023-10-13T16:54:32.795Z,18.08
2023-10-13T16:57:35.447Z,22.35
2023-10-13T17:00:38.458Z,18.38
2023-10-13T17:03:42.123Z,20.60
2023-10-13T17:06:44.810Z,17.48
2023-10-13T17:09:47.321Z,15.55
2023-10-13T17:12:49.769Z,16.33
2023-10-13T17:15:52.356Z,18.17
2023-10-13T17:18:56.019Z,17.90
2023-10-13T17:21:59.389Z,10.85
2023-10-13T17:25:02.241Z,15.73
2023-10-13T17:28:14.083Z,16.80
2023-10-13T17:31:17.557Z,17.60
2023-10-13T17:34:20.275Z,16.60
2023-10-13T17:37:22.882Z,8.75
2023-10-13T17:40:27.079Z,10.18
2023-10-13T17:43:29.503Z,11.48
2023-10-13T17:46:32.093Z,14.80
2023-10-13T17:49:34.602Z,10.67
2023-10-13T17:52:37.978Z,13.18
2023-10-13T17:55:40.912Z,13.65
2023-10-13T17:58:44.489Z,13.93
2023-10-13T18:01:50.233Z,11.15
2023-10-13T18:04:53.382Z,15.23
2023-10-13T18:07:55.868Z,14.45
2023-10-13T18:10:59.962Z,18.77
2023-10-13T18:14:02.339Z,13.30
2023-10-13T18:17:06.875Z,10.00
2023-10-13T18:20:16.359Z,16.43
2023-10-13T18:23:19.197Z,13.40
2023-10-13T18:26:21.655Z,16.17
2023-10-13T18:29:24.838Z,14.27
2023-10-13T18:32:27.363Z,11.43
2023-10-13T18:35:32.201Z,10.20
2023-10-13T18:38:34.622Z,9.90
2023-10-13T18:41:37.711Z,11.30
2023-10-13T18:44:42.020Z,10.38
2023-10-13T18:47:46.331Z,10.85
2023-10-13T18:50:49.735Z,9.67
2023-10-13T18:53:52.538Z,16.35
2023-10-13T18:56:55.640Z,11.25
2023-10-13T18:59:58.038Z,9.23
2023-10-13T19:03:06.594Z,30.52
2023-10-13T19:06:09.887Z,28.00
2023-10-13T19:09:13.023Z,18.95
2023-10-13T19:12:15.492Z,13.75
2023-10-13T19:15:18.056Z,11.82
2023-10-13T19:18:20.606Z,28.95
2023-10-13T19:21:22.973Z,20.37
2023-10-13T19:24:25.958Z,25.65
2023-10-13T19:27:28.411Z,23.98
2023-10-13T19:30:34.010Z,18.98
2023-10-13T19:33:37.693Z,20.65
2023-10-13T19:36:40.134Z,14.90
2023-10-13T19:39:43.632Z,19.33
2023-10-13T19:42:46.528Z,27.88
2023-10-13T19:45:49.829Z,32.45
2023-10-13T19:48:52.599Z,21.95
2023-10-13T19:51:59.182Z,25.50
2023-10-13T19:55:02.043Z,33.03
2023-10-13T19:58:05.306Z,39.55
2023-10-13T20:01:12.240Z,38.33
2023-10-13T20:04:19.962Z,35.33
2023-10-13T20:07:22.492Z,50.70
2023-10-13T20:10:24.941Z,50.70
2023-10-13T20:13:27.450Z,52.00
2023-10-13T20:16:31.146Z,24.02
2023-10-13T20:19:33.897Z,27.58
2023-10-13T20:22:39.840Z,33.50
2023-10-13T20:25:43.525Z,51.95
2023-10-13T20:28:46.070Z,54.70
2023-10-13T20:31:50.258Z,51.15
2023-10-13T20:34:55.274Z,26.67
2023-10-13T20:37:57.710Z,24.80
2023-10-13T20:41:01.845Z,22.08
2023-10-13T20:44:04.519Z,21.55
2023-10-13T20:47:14.269Z,19.80
2023-10-13T20:50:19.595Z,30.33
2023-10-13T20:53:21.996Z,24.93
2023-10-13T20:56:24.468Z,27.08
2023-10-13T20:59:26.975Z,17.08
2023-10-13T21:02:29.437Z,14.23
2023-10-13T21:05:32.956Z,24.80
2023-10-13T21:08:39.116Z,16.90
2023-10-13T21:11:44.690Z,15.77
2023-10-13T21:14:47.665Z,17.98
2023-10-13T21:17:50.638Z,17.27
2023-10-13T21:20:56.357Z,13.68
2023-10-13T21:24:00.473Z,16.83
2023-10-13T21:27:04.387Z,15.30
2023-10-13T21:30:08.805Z,15.27
2023-10-13T21:33:11.276Z,15.00
2023-10-13T21:36:20.010Z,15.40
2023-10-13T21:39:30.882Z,13.93
2023-10-13T21:42:37.191Z,22.67
2023-10-13T21:45:39.678Z,15.32
2023-10-13T21:48:42.150Z,17.70
2023-10-13T21:51:44.746Z,18.77
2023-10-13T21:54:49.933Z,16.33
2023-10-13T21:57:57.221Z,15.20
2023-10-13T22:01:22.370Z,18.58
2023-10-13T22:04:31.683Z,15.80
2023-10-13T22:07:35.241Z,13.63
2023-10-13T22:10:38.505Z,14.13
2023-10-13T22:13:42.069Z,17.33
2023-10-13T22:16:44.702Z,14.65
2023-10-13T22:19:50.537Z,13.95
2023-10-13T22:22:53.839Z,16.70
2023-10-13T22:25:56.386Z,16.03
2023-10-13T22:28:59.704Z,17.90
2023-10-13T22:32:02.453Z,15.13
2023-10-13T22:35:05.258Z,19.35
2023-10-13T22:38:08.251Z,19.77
2023-10-13T22:41:13.116Z,17.67
2023-10-13T22:44:19.993Z,15.68
2023-10-13T22:47:22.407Z,16.77
2023-10-13T22:50:27.917Z,14.50
2023-10-13T22:53:31.178Z,14.80
2023-10-13T22:56:33.658Z,19.53
2023-10-13T22:59:38.851Z,18.13
2023-10-13T23:02:42.004Z,23.00
2023-10-13T23:05:54.590Z,15.98
2023-10-13T23:08:57.212Z,22.38
2023-10-13T23:12:05.887Z,20.37
2023-10-13T23:15:13.722Z,19.83
2023-10-13T23:18:20.019Z,14.38
2023-10-13T23:21:23.063Z,21.13
2023-10-13T23:24:25.483Z,17.30
2023-10-13T23:27:29.861Z,19.63
2023-10-13T23:30:39.778Z,14.60
2023-10-13T23:33:45.547Z,16.10
2023-10-13T23:36:47.965Z,22.00
2023-10-13T23:39:53.939Z,22.25
2023-10-13T23:42:57.618Z,16.60
2023-10-13T23:46:01.217Z,16.63
2023-10-13T23:49:04.677Z,12.40
2023-10-13T23:52:08.684Z,19.58
2023-10-13T23:55:18.761Z,17.83
2023-10-13T23:58:24.815Z,20.97
